sensor_id;sensor_type;location;lat;lon;timestamp;P1;durP1;ratioP1;P2;durP2;ratioP2
16401;SDS011;8310;44.626;11.176;2022-10-31T00:01:16;10.80;;;9.50;;
16401;SDS011;8310;44.626;11.176;2022-10-31T00:03:45;14.32;;;10.23;;
16401;SDS011;8310;44.626;11.176;2022-10-31T00:06:14;13.70;;;9.68;;
16401;SDS011;8310;44.626;11.176;2022-10-31T00:08:43;12.32;;;10.10;;
16401;SDS011;8310;44.626;11.176;2022-10-31T00:11:11;12.02;;;10.73;;
16401;SDS011;8310;44.626;11.176;2022-10-31T00:13:39;13.48;;;10.43;;
16401;SDS011;8310;44.626;11.176;2022-10-31T00:16:13;16.15;;;11.18;;
16401;SDS011;8310;44.626;11.176;2022-10-31T00:18:42;11.05;;;9.30;;
16401;SDS011;8310;44.626;11.176;2022-10-31T00:21:09;12.50;;;9.93;;
16401;SDS011;8310;44.626;11.176;2022-10-31T00:23:37;11.20;;;9.98;;
16401;SDS011;8310;44.626;11.176;2022-10-31T00:26:05;14.38;;;10.50;;
16401;SDS011;8310;44.626;11.176;2022-10-31T00:28:33;14.93;;;10.48;;
16401;SDS011;8310;44.626;11.176;2022-10-31T00:31:01;12.05;;;9.73;;
16401;SDS011;8310;44.626;11.176;2022-10-31T00:33:32;11.82;;;10.23;;
16401;SDS011;8310;44.626;11.176;2022-10-31T00:36:01;13.77;;;10.35;;
16401;SDS011;8310;44.626;11.176;2022-10-31T00:38:29;12.20;;;9.27;;
16401;SDS011;8310;44.626;11.176;2022-10-31T00:40:58;12.65;;;9.25;;
16401;SDS011;8310;44.626;11.176;2022-10-31T00:43:25;11.10;;;9.50;;
16401;SDS011;8310;44.626;11.176;2022-10-31T00:45:53;11.77;;;9.10;;
16401;SDS011;8310;44.626;11.176;2022-10-31T00:48:21;12.52;;;9.57;;
16401;SDS011;8310;44.626;11.176;2022-10-31T00:50:50;12.52;;;9.82;;
16401;SDS011;8310;44.626;11.176;2022-10-31T00:53:17;14.52;;;9.15;;
16401;SDS011;8310;44.626;11.176;2022-10-31T00:55:45;11.10;;;9.50;;
16401;SDS011;8310;44.626;11.176;2022-10-31T00:58:13;12.05;;;9.77;;
16401;SDS011;8310;44.626;11.176;2022-10-31T01:00:40;12.63;;;9.70;;
16401;SDS011;8310;44.626;11.176;2022-10-31T01:03:08;12.77;;;9.90;;
16401;SDS011;8310;44.626;11.176;2022-10-31T01:05:35;13.70;;;10.35;;
16401;SDS011;8310;44.626;11.176;2022-10-31T01:08:05;12.88;;;9.90;;
16401;SDS011;8310;44.626;11.176;2022-10-31T01:10:32;17.08;;;9.55;;
16401;SDS011;8310;44.626;11.176;2022-10-31T01:13:00;11.93;;;9.27;;
16401;SDS011;8310;44.626;11.176;2022-10-31T01:15:28;11.93;;;8.95;;
16401;SDS011;8310;44.626;11.176;2022-10-31T01:17:55;12.07;;;9.68;;
16401;SDS011;8310;44.626;11.176;2022-10-31T01:20:23;14.15;;;10.45;;
16401;SDS011;8310;44.626;11.176;2022-10-31T01:22:50;12.15;;;9.07;;
16401;SDS011;8310;44.626;11.176;2022-10-31T01:25:19;9.75;;;8.70;;
16401;SDS011;8310;44.626;11.176;2022-10-31T01:27:46;10.27;;;9.05;;
16401;SDS011;8310;44.626;11.176;2022-10-31T01:30:14;13.15;;;9.57;;
16401;SDS011;8310;44.626;11.176;2022-10-31T01:32:42;11.85;;;9.32;;
16401;SDS011;8310;44.626;11.176;2022-10-31T01:35:09;11.80;;;9.38;;
16401;SDS011;8310;44.626;11.176;2022-10-31T01:37:37;11.20;;;8.65;;
16401;SDS011;8310;44.626;11.176;2022-10-31T01:40:05;12.25;;;8.98;;
16401;SDS011;8310;44.626;11.176;2022-10-31T01:42:35;10.13;;;8.27;;
16401;SDS011;8310;44.626;11.176;2022-10-31T01:45:02;11.07;;;8.90;;
16401;SDS011;8310;44.626;11.176;2022-10-31T01:47:31;11.18;;;8.45;;
16401;SDS011;8310;44.626;11.176;2022-10-31T01:50:04;12.02;;;8.45;;
16401;SDS011;8310;44.626;11.176;2022-10-31T01:52:37;11.75;;;8.68;;
16401;SDS011;8310;44.626;11.176;2022-10-31T01:55:09;11.52;;;8.98;;
16401;SDS011;8310;44.626;11.176;2022-10-31T01:57:42;9.82;;;8.55;;
16401;SDS011;8310;44.626;11.176;2022-10-31T02:00:13;15.13;;;9.00;;
16401;SDS011;8310;44.626;11.176;2022-10-31T02:02:42;10.40;;;8.70;;
16401;SDS011;8310;44.626;11.176;2022-10-31T02:05:12;9.82;;;8.57;;
16401;SDS011;8310;44.626;11.176;2022-10-31T02:07:45;13.85;;;8.13;;
16401;SDS011;8310;44.626;11.176;2022-10-31T02:10:17;9.32;;;7.95;;
16401;SDS011;8310;44.626;11.176;2022-10-31T02:12:49;9.20;;;7.30;;
16401;SDS011;8310;44.626;11.176;2022-10-31T02:15:18;8.90;;;7.53;;
16401;SDS011;8310;44.626;11.176;2022-10-31T02:17:46;11.52;;;7.85;;
16401;SDS011;8310;44.626;11.176;2022-10-31T02:20:15;8.18;;;6.80;;
16401;SDS011;8310;44.626;11.176;2022-10-31T02:25:51;12.20;;;8.43;;
16401;SDS011;8310;44.626;11.176;2022-10-31T02:28:55;7.30;;;6.53;;
16401;SDS011;8310;44.626;11.176;2022-10-31T02:31:39;8.95;;;6.97;;
16401;SDS011;8310;44.626;11.176;2022-10-31T02:34:13;8.15;;;7.25;;
16401;SDS011;8310;44.626;11.176;2022-10-31T02:36:47;8.38;;;6.40;;
16401;SDS011;8310;44.626;11.176;2022-10-31T02:39:22;9.68;;;6.75;;
16401;SDS011;8310;44.626;11.176;2022-10-31T02:41:52;9.45;;;6.63;;
16401;SDS011;8310;44.626;11.176;2022-10-31T02:44:29;9.07;;;7.70;;
16401;SDS011;8310;44.626;11.176;2022-10-31T02:47:03;10.50;;;7.15;;
16401;SDS011;8310;44.626;11.176;2022-10-31T02:49:37;8.70;;;7.72;;
16401;SDS011;8310;44.626;11.176;2022-10-31T02:52:14;9.73;;;7.00;;
16401;SDS011;8310;44.626;11.176;2022-10-31T02:54:45;9.15;;;7.18;;
16401;SDS011;8310;44.626;11.176;2022-10-31T02:57:14;7.75;;;6.75;;
16401;SDS011;8310;44.626;11.176;2022-10-31T02:59:46;8.52;;;7.03;;
16401;SDS011;8310;44.626;11.176;2022-10-31T03:02:20;7.00;;;6.28;;
16401;SDS011;8310;44.626;11.176;2022-10-31T03:05:08;7.95;;;6.93;;
16401;SDS011;8310;44.626;11.176;2022-10-31T03:07:47;9.43;;;7.07;;
16401;SDS011;8310;44.626;11.176;2022-10-31T03:10:24;9.48;;;7.32;;
16401;SDS011;8310;44.626;11.176;2022-10-31T03:12:59;9.73;;;7.50;;
16401;SDS011;8310;44.626;11.176;2022-10-31T03:15:34;8.55;;;7.18;;
16401;SDS011;8310;44.626;11.176;2022-10-31T03:18:07;10.00;;;7.55;;
16401;SDS011;8310;44.626;11.176;2022-10-31T03:20:37;6.60;;;5.60;;
16401;SDS011;8310;44.626;11.176;2022-10-31T03:23:08;7.18;;;6.15;;
16401;SDS011;8310;44.626;11.176;2022-10-31T03:25:40;6.95;;;6.20;;
16401;SDS011;8310;44.626;11.176;2022-10-31T03:28:11;11.57;;;7.50;;
16401;SDS011;8310;44.626;11.176;2022-10-31T03:30:41;7.75;;;6.53;;
16401;SDS011;8310;44.626;11.176;2022-10-31T03:33:13;7.25;;;5.88;;
16401;SDS011;8310;44.626;11.176;2022-10-31T03:35:45;8.65;;;6.32;;
16401;SDS011;8310;44.626;11.176;2022-10-31T03:38:17;8.00;;;5.75;;
16401;SDS011;8310;44.626;11.176;2022-10-31T03:40:46;8.32;;;5.70;;
16401;SDS011;8310;44.626;11.176;2022-10-31T03:43:18;7.35;;;5.53;;
16401;SDS011;8310;44.626;11.176;2022-10-31T03:45:53;7.15;;;5.90;;
16401;SDS011;8310;44.626;11.176;2022-10-31T03:48:22;7.35;;;5.93;;
16401;SDS011;8310;44.626;11.176;2022-10-31T03:50:52;7.68;;;6.07;;
16401;SDS011;8310;44.626;11.176;2022-10-31T03:53:30;7.93;;;6.80;;
16401;SDS011;8310;44.626;11.176;2022-10-31T03:56:01;8.10;;;6.63;;
16401;SDS011;8310;44.626;11.176;2022-10-31T03:58:35;9.32;;;7.03;;
16401;SDS011;8310;44.626;11.176;2022-10-31T04:01:06;8.63;;;6.07;;
16401;SDS011;8310;44.626;11.176;2022-10-31T04:03:37;8.50;;;6.72;;
16401;SDS011;8310;44.626;11.176;2022-10-31T04:06:06;8.60;;;6.55;;
16401;SDS011;8310;44.626;11.176;2022-10-31T04:08:39;10.68;;;6.32;;
16401;SDS011;8310;44.626;11.176;2022-10-31T04:11:09;9.40;;;7.72;;
16401;SDS011;8310;44.626;11.176;2022-10-31T04:13:39;8.70;;;7.80;;
16401;SDS011;8310;44.626;11.176;2022-10-31T04:16:09;11.57;;;8.07;;
16401;SDS011;8310;44.626;11.176;2022-10-31T04:18:39;11.30;;;8.20;;
16401;SDS011;8310;44.626;11.176;2022-10-31T04:21:07;11.38;;;8.23;;
16401;SDS011;8310;44.626;11.176;2022-10-31T04:23:35;11.50;;;8.02;;
16401;SDS011;8310;44.626;11.176;2022-10-31T04:26:03;8.57;;;7.57;;
16401;SDS011;8310;44.626;11.176;2022-10-31T04:28:31;9.70;;;7.50;;
16401;SDS011;8310;44.626;11.176;2022-10-31T04:30:59;9.02;;;8.05;;
16401;SDS011;8310;44.626;11.176;2022-10-31T04:33:26;11.15;;;8.18;;
16401;SDS011;8310;44.626;11.176;2022-10-31T04:35:55;9.48;;;7.85;;
16401;SDS011;8310;44.626;11.176;2022-10-31T04:38:23;9.40;;;7.65;;
16401;SDS011;8310;44.626;11.176;2022-10-31T04:40:50;10.30;;;7.68;;
16401;SDS011;8310;44.626;11.176;2022-10-31T04:43:18;8.02;;;7.22;;
16401;SDS011;8310;44.626;11.176;2022-10-31T04:45:45;13.02;;;8.07;;
16401;SDS011;8310;44.626;11.176;2022-10-31T04:48:13;8.55;;;7.68;;
16401;SDS011;8310;44.626;11.176;2022-10-31T04:50:40;8.00;;;7.05;;
16401;SDS011;8310;44.626;11.176;2022-10-31T04:53:09;8.40;;;7.35;;
16401;SDS011;8310;44.626;11.176;2022-10-31T04:55:38;9.60;;;7.07;;
16401;SDS011;8310;44.626;11.176;2022-10-31T04:58:05;9.77;;;7.53;;
16401;SDS011;8310;44.626;11.176;2022-10-31T05:00:33;8.52;;;7.28;;
16401;SDS011;8310;44.626;11.176;2022-10-31T05:03:00;11.30;;;8.63;;
16401;SDS011;8310;44.626;11.176;2022-10-31T05:05:30;9.07;;;7.63;;
16401;SDS011;8310;44.626;11.176;2022-10-31T05:07:58;8.82;;;6.85;;
16401;SDS011;8310;44.626;11.176;2022-10-31T05:10:28;8.30;;;6.78;;
16401;SDS011;8310;44.626;11.176;2022-10-31T05:12:57;9.65;;;6.78;;
16401;SDS011;8310;44.626;11.176;2022-10-31T05:15:26;7.50;;;6.78;;
16401;SDS011;8310;44.626;11.176;2022-10-31T05:17:54;8.07;;;6.65;;
16401;SDS011;8310;44.626;11.176;2022-10-31T05:20:23;9.55;;;7.80;;
16401;SDS011;8310;44.626;11.176;2022-10-31T05:22:53;10.18;;;7.03;;
16401;SDS011;8310;44.626;11.176;2022-10-31T05:25:22;8.68;;;6.90;;
16401;SDS011;8310;44.626;11.176;2022-10-31T05:27:53;10.38;;;6.43;;
16401;SDS011;8310;44.626;11.176;2022-10-31T05:30:22;9.48;;;6.90;;
16401;SDS011;8310;44.626;11.176;2022-10-31T05:32:51;9.07;;;6.30;;
16401;SDS011;8310;44.626;11.176;2022-10-31T05:35:19;8.38;;;6.32;;
16401;SDS011;8310;44.626;11.176;2022-10-31T05:37:48;7.43;;;6.45;;
16401;SDS011;8310;44.626;11.176;2022-10-31T05:40:16;8.82;;;6.78;;
16401;SDS011;8310;44.626;11.176;2022-10-31T05:42:44;10.18;;;6.70;;
16401;SDS011;8310;44.626;11.176;2022-10-31T05:45:15;9.90;;;7.60;;
16401;SDS011;8310;44.626;11.176;2022-10-31T05:47:49;7.38;;;6.57;;
16401;SDS011;8310;44.626;11.176;2022-10-31T05:50:17;9.43;;;6.70;;
16401;SDS011;8310;44.626;11.176;2022-10-31T05:52:44;8.80;;;6.22;;
16401;SDS011;8310;44.626;11.176;2022-10-31T05:55:12;6.20;;;5.60;;
16401;SDS011;8310;44.626;11.176;2022-10-31T05:57:40;7.97;;;5.70;;
16401;SDS011;8310;44.626;11.176;2022-10-31T06:00:08;7.20;;;5.60;;
16401;SDS011;8310;44.626;11.176;2022-10-31T06:02:38;8.13;;;5.40;;
16401;SDS011;8310;44.626;11.176;2022-10-31T06:05:05;9.23;;;5.97;;
16401;SDS011;8310;44.626;11.176;2022-10-31T06:07:34;7.15;;;6.18;;
16401;SDS011;8310;44.626;11.176;2022-10-31T06:10:02;8.10;;;6.50;;
16401;SDS011;8310;44.626;11.176;2022-10-31T06:12:31;11.02;;;7.35;;
16401;SDS011;8310;44.626;11.176;2022-10-31T06:15:02;10.75;;;7.80;;
16401;SDS011;8310;44.626;11.176;2022-10-31T06:17:31;9.60;;;7.68;;
16401;SDS011;8310;44.626;11.176;2022-10-31T06:20:01;9.45;;;7.40;;
16401;SDS011;8310;44.626;11.176;2022-10-31T06:22:29;9.07;;;7.38;;
16401;SDS011;8310;44.626;11.176;2022-10-31T06:24:56;9.25;;;7.50;;
16401;SDS011;8310;44.626;11.176;2022-10-31T06:27:24;9.85;;;6.65;;
16401;SDS011;8310;44.626;11.176;2022-10-31T06:29:52;10.00;;;6.03;;
16401;SDS011;8310;44.626;11.176;2022-10-31T06:32:20;22.92;;;8.45;;
16401;SDS011;8310;44.626;11.176;2022-10-31T06:34:48;20.70;;;7.43;;
16401;SDS011;8310;44.626;11.176;2022-10-31T06:37:17;18.25;;;7.90;;
16401;SDS011;8310;44.626;11.176;2022-10-31T06:39:44;22.23;;;8.10;;
16401;SDS011;8310;44.626;11.176;2022-10-31T06:42:12;17.98;;;8.10;;
16401;SDS011;8310;44.626;11.176;2022-10-31T06:44:41;14.27;;;7.93;;
16401;SDS011;8310;44.626;11.176;2022-10-31T06:47:09;12.32;;;7.50;;
16401;SDS011;8310;44.626;11.176;2022-10-31T06:49:36;20.98;;;9.23;;
16401;SDS011;8310;44.626;11.176;2022-10-31T06:52:04;12.43;;;7.13;;
16401;SDS011;8310;44.626;11.176;2022-10-31T06:54:33;32.17;;;10.15;;
16401;SDS011;8310;44.626;11.176;2022-10-31T06:57:02;9.20;;;6.45;;
16401;SDS011;8310;44.626;11.176;2022-10-31T06:59:30;9.77;;;6.80;;
16401;SDS011;8310;44.626;11.176;2022-10-31T07:01:58;22.23;;;7.28;;
16401;SDS011;8310;44.626;11.176;2022-10-31T07:04:25;10.10;;;6.90;;
16401;SDS011;8310;44.626;11.176;2022-10-31T07:06:53;36.33;;;8.48;;
16401;SDS011;8310;44.626;11.176;2022-10-31T07:09:21;7.50;;;6.70;;
16401;SDS011;8310;44.626;11.176;2022-10-31T07:11:50;9.18;;;6.65;;
16401;SDS011;8310;44.626;11.176;2022-10-31T07:14:19;8.45;;;6.40;;
16401;SDS011;8310;44.626;11.176;2022-10-31T07:16:48;7.10;;;5.82;;
16401;SDS011;8310;44.626;11.176;2022-10-31T07:19:17;9.30;;;5.38;;
16401;SDS011;8310;44.626;11.176;2022-10-31T07:21:44;4.95;;;4.47;;
16401;SDS011;8310;44.626;11.176;2022-10-31T07:24:12;4.68;;;4.25;;
16401;SDS011;8310;44.626;11.176;2022-10-31T07:26:39;5.40;;;4.20;;
16401;SDS011;8310;44.626;11.176;2022-10-31T07:29:08;4.75;;;3.88;;
16401;SDS011;8310;44.626;11.176;2022-10-31T07:31:36;6.50;;;3.90;;
16401;SDS011;8310;44.626;11.176;2022-10-31T07:34:03;5.03;;;3.97;;
16401;SDS011;8310;44.626;11.176;2022-10-31T07:36:31;7.03;;;4.20;;
16401;SDS011;8310;44.626;11.176;2022-10-31T07:38:58;6.53;;;4.40;;
16401;SDS011;8310;44.626;11.176;2022-10-31T07:41:30;6.82;;;4.20;;
16401;SDS011;8310;44.626;11.176;2022-10-31T07:43:57;5.28;;;4.07;;
16401;SDS011;8310;44.626;11.176;2022-10-31T07:46:26;6.25;;;4.50;;
16401;SDS011;8310;44.626;11.176;2022-10-31T07:48:55;5.28;;;4.25;;
16401;SDS011;8310;44.626;11.176;2022-10-31T07:51:22;6.85;;;4.40;;
16401;SDS011;8310;44.626;11.176;2022-10-31T07:53:50;7.45;;;4.40;;
16401;SDS011;8310;44.626;11.176;2022-10-31T07:56:18;6.45;;;4.63;;
16401;SDS011;8310;44.626;11.176;2022-10-31T07:58:46;5.63;;;4.22;;
16401;SDS011;8310;44.626;11.176;2022-10-31T08:01:13;5.65;;;3.80;;
16401;SDS011;8310;44.626;11.176;2022-10-31T08:03:42;5.20;;;4.38;;
16401;SDS011;8310;44.626;11.176;2022-10-31T08:06:10;4.85;;;4.45;;
16401;SDS011;8310;44.626;11.176;2022-10-31T08:08:38;6.10;;;4.47;;
16401;SDS011;8310;44.626;11.176;2022-10-31T08:11:05;9.18;;;5.13;;
16401;SDS011;8310;44.626;11.176;2022-10-31T08:13:33;9.18;;;6.07;;
16401;SDS011;8310;44.626;11.176;2022-10-31T08:16:01;6.85;;;5.82;;
16401;SDS011;8310;44.626;11.176;2022-10-31T08:18:29;9.30;;;7.18;;
16401;SDS011;8310;44.626;11.176;2022-10-31T08:20:59;8.63;;;6.70;;
16401;SDS011;8310;44.626;11.176;2022-10-31T08:23:26;8.45;;;7.00;;
16401;SDS011;8310;44.626;11.176;2022-10-31T08:25:54;13.73;;;9.27;;
16401;SDS011;8310;44.626;11.176;2022-10-31T08:28:21;11.52;;;9.20;;
16401;SDS011;8310;44.626;11.176;2022-10-31T08:30:49;9.57;;;8.38;;
16401;SDS011;8310;44.626;11.176;2022-10-31T08:33:17;47.70;;;14.63;;
16401;SDS011;8310;44.626;11.176;2022-10-31T08:35:45;14.05;;;10.70;;
16401;SDS011;8310;44.626;11.176;2022-10-31T08:38:14;18.83;;;11.30;;
16401;SDS011;8310;44.626;11.176;2022-10-31T08:40:42;25.55;;;11.60;;
16401;SDS011;8310;44.626;11.176;2022-10-31T08:43:15;15.73;;;11.45;;
16401;SDS011;8310;44.626;11.176;2022-10-31T08:45:43;16.33;;;12.18;;
16401;SDS011;8310;44.626;11.176;2022-10-31T08:48:14;15.00;;;10.60;;
16401;SDS011;8310;44.626;11.176;2022-10-31T08:50:43;17.33;;;12.25;;
16401;SDS011;8310;44.626;11.176;2022-10-31T08:53:12;15.13;;;11.05;;
16401;SDS011;8310;44.626;11.176;2022-10-31T08:55:43;18.48;;;13.07;;
16401;SDS011;8310;44.626;11.176;2022-10-31T08:58:13;20.38;;;14.05;;
16401;SDS011;8310;44.626;11.176;2022-10-31T09:00:41;25.90;;;14.05;;
16401;SDS011;8310;44.626;11.176;2022-10-31T09:03:10;24.40;;;15.25;;
16401;SDS011;8310;44.626;11.176;2022-10-31T09:05:39;18.92;;;14.55;;
16401;SDS011;8310;44.626;11.176;2022-10-31T09:08:07;35.28;;;17.08;;
16401;SDS011;8310;44.626;11.176;2022-10-31T09:10:36;22.70;;;15.88;;
16401;SDS011;8310;44.626;11.176;2022-10-31T09:13:05;22.27;;;17.08;;
16401;SDS011;8310;44.626;11.176;2022-10-31T09:15:34;25.58;;;17.55;;
16401;SDS011;8310;44.626;11.176;2022-10-31T09:18:03;21.55;;;15.70;;
16401;SDS011;8310;44.626;11.176;2022-10-31T09:20:31;24.55;;;16.20;;
16401;SDS011;8310;44.626;11.176;2022-10-31T09:23:00;24.80;;;15.73;;
16401;SDS011;8310;44.626;11.176;2022-10-31T09:25:29;24.98;;;17.00;;
16401;SDS011;8310;44.626;11.176;2022-10-31T09:27:59;28.75;;;16.35;;
16401;SDS011;8310;44.626;11.176;2022-10-31T09:30:28;21.77;;;16.15;;
16401;SDS011;8310;44.626;11.176;2022-10-31T09:32:57;22.42;;;14.98;;
16401;SDS011;8310;44.626;11.176;2022-10-31T09:35:25;20.92;;;15.50;;
16401;SDS011;8310;44.626;11.176;2022-10-31T09:37:54;22.92;;;15.88;;
16401;SDS011;8310;44.626;11.176;2022-10-31T09:40:22;24.20;;;17.30;;
16401;SDS011;8310;44.626;11.176;2022-10-31T09:42:55;21.33;;;15.43;;
16401;SDS011;8310;44.626;11.176;2022-10-31T09:45:35;23.00;;;16.30;;
16401;SDS011;8310;44.626;11.176;2022-10-31T09:48:14;23.48;;;16.02;;
16401;SDS011;8310;44.626;11.176;2022-10-31T09:50:51;21.88;;;16.08;;
16401;SDS011;8310;44.626;11.176;2022-10-31T09:53:23;21.38;;;15.85;;
16401;SDS011;8310;44.626;11.176;2022-10-31T09:55:56;24.60;;;17.25;;
16401;SDS011;8310;44.626;11.176;2022-10-31T09:58:27;25.48;;;15.80;;
16401;SDS011;8310;44.626;11.176;2022-10-31T10:00:58;22.42;;;15.98;;
16401;SDS011;8310;44.626;11.176;2022-10-31T10:03:31;28.42;;;16.48;;
16401;SDS011;8310;44.626;11.176;2022-10-31T10:06:06;20.73;;;14.02;;
16401;SDS011;8310;44.626;11.176;2022-10-31T10:08:37;19.33;;;14.57;;
16401;SDS011;8310;44.626;11.176;2022-10-31T10:11:19;21.23;;;15.63;;
16401;SDS011;8310;44.626;11.176;2022-10-31T10:14:04;22.13;;;15.48;;
16401;SDS011;8310;44.626;11.176;2022-10-31T10:16:51;19.90;;;13.73;;
16401;SDS011;8310;44.626;11.176;2022-10-31T10:19:43;18.27;;;14.32;;
16401;SDS011;8310;44.626;11.176;2022-10-31T10:22:36;21.17;;;14.32;;
16401;SDS011;8310;44.626;11.176;2022-10-31T10:25:18;23.00;;;14.20;;
16401;SDS011;8310;44.626;11.176;2022-10-31T10:27:50;18.98;;;13.80;;
16401;SDS011;8310;44.626;11.176;2022-10-31T10:30:33;20.70;;;13.50;;
16401;SDS011;8310;44.626;11.176;2022-10-31T10:33:08;17.90;;;13.40;;
16401;SDS011;8310;44.626;11.176;2022-10-31T10:35:39;16.33;;;13.10;;
16401;SDS011;8310;44.626;11.176;2022-10-31T10:38:12;17.27;;;12.18;;
16401;SDS011;8310;44.626;11.176;2022-10-31T10:40:44;22.77;;;12.32;;
16401;SDS011;8310;44.626;11.176;2022-10-31T10:43:18;18.80;;;12.73;;
16401;SDS011;8310;44.626;11.176;2022-10-31T10:45:55;18.95;;;13.45;;
16401;SDS011;8310;44.626;11.176;2022-10-31T10:48:50;16.63;;;13.27;;
16401;SDS011;8310;44.626;11.176;2022-10-31T10:51:22;17.48;;;12.90;;
16401;SDS011;8310;44.626;11.176;2022-10-31T10:53:54;22.45;;;15.13;;
16401;SDS011;8310;44.626;11.176;2022-10-31T10:56:44;19.58;;;13.18;;
16401;SDS011;8310;44.626;11.176;2022-10-31T10:59:18;19.25;;;13.68;;
16401;SDS011;8310;44.626;11.176;2022-10-31T11:01:49;18.17;;;13.05;;
16401;SDS011;8310;44.626;11.176;2022-10-31T11:07:03;17.50;;;11.95;;
16401;SDS011;8310;44.626;11.176;2022-10-31T11:09:32;16.83;;;12.30;;
16401;SDS011;8310;44.626;11.176;2022-10-31T11:12:05;16.50;;;13.18;;
16401;SDS011;8310;44.626;11.176;2022-10-31T11:14:36;19.02;;;13.50;;
16401;SDS011;8310;44.626;11.176;2022-10-31T11:17:17;12.88;;;11.40;;
16401;SDS011;8310;44.626;11.176;2022-10-31T11:19:47;14.57;;;11.05;;
16401;SDS011;8310;44.626;11.176;2022-10-31T11:22:15;14.60;;;11.07;;
16401;SDS011;8310;44.626;11.176;2022-10-31T11:24:44;17.52;;;10.95;;
16401;SDS011;8310;44.626;11.176;2022-10-31T11:27:13;15.98;;;10.82;;
16401;SDS011;8310;44.626;11.176;2022-10-31T11:29:43;15.30;;;10.23;;
16401;SDS011;8310;44.626;11.176;2022-10-31T11:32:18;16.98;;;10.93;;
16401;SDS011;8310;44.626;11.176;2022-10-31T11:34:48;14.38;;;10.27;;
16401;SDS011;8310;44.626;11.176;2022-10-31T11:37:18;13.20;;;9.75;;
16401;SDS011;8310;44.626;11.176;2022-10-31T11:39:49;16.60;;;9.77;;
16401;SDS011;8310;44.626;11.176;2022-10-31T11:42:21;16.20;;;9.65;;
16401;SDS011;8310;44.626;11.176;2022-10-31T11:44:50;15.23;;;9.48;;
16401;SDS011;8310;44.626;11.176;2022-10-31T11:47:24;17.48;;;11.05;;
16401;SDS011;8310;44.626;11.176;2022-10-31T11:49:54;20.92;;;11.52;;
16401;SDS011;8310;44.626;11.176;2022-10-31T11:52:24;13.13;;;9.75;;
16401;SDS011;8310;44.626;11.176;2022-10-31T11:57:43;18.23;;;11.80;;
16401;SDS011;8310;44.626;11.176;2022-10-31T12:00:21;13.38;;;9.77;;
16401;SDS011;8310;44.626;11.176;2022-10-31T12:03:09;16.30;;;10.48;;
16401;SDS011;8310;44.626;11.176;2022-10-31T12:05:41;15.13;;;10.68;;
16401;SDS011;8310;44.626;11.176;2022-10-31T12:08:11;15.10;;;10.30;;
16401;SDS011;8310;44.626;11.176;2022-10-31T12:10:40;15.20;;;10.68;;
16401;SDS011;8310;44.626;11.176;2022-10-31T12:13:30;12.85;;;9.10;;
16401;SDS011;8310;44.626;11.176;2022-10-31T12:16:02;13.50;;;10.02;;
16401;SDS011;8310;44.626;11.176;2022-10-31T12:18:46;12.05;;;9.05;;
16401;SDS011;8310;44.626;11.176;2022-10-31T12:21:26;12.55;;;10.07;;
16401;SDS011;8310;44.626;11.176;2022-10-31T12:24:18;37.15;;;12.48;;
16401;SDS011;8310;44.626;11.176;2022-10-31T12:27:00;14.95;;;9.95;;
16401;SDS011;8310;44.626;11.176;2022-10-31T12:29:48;14.80;;;9.75;;
16401;SDS011;8310;44.626;11.176;2022-10-31T12:32:40;13.50;;;9.40;;
16401;SDS011;8310;44.626;11.176;2022-10-31T12:35:29;10.65;;;8.48;;
16401;SDS011;8310;44.626;11.176;2022-10-31T12:38:12;16.30;;;9.75;;
16401;SDS011;8310;44.626;11.176;2022-10-31T12:40:53;13.13;;;9.00;;
16401;SDS011;8310;44.626;11.176;2022-10-31T12:43:39;14.13;;;9.80;;
16401;SDS011;8310;44.626;11.176;2022-10-31T12:46:14;12.52;;;9.18;;
16401;SDS011;8310;44.626;11.176;2022-10-31T12:48:54;12.35;;;9.50;;
16401;SDS011;8310;44.626;11.176;2022-10-31T12:51:39;11.27;;;8.73;;
16401;SDS011;8310;44.626;11.176;2022-10-31T12:54:29;13.50;;;8.75;;
16401;SDS011;8310;44.626;11.176;2022-10-31T12:57:11;15.75;;;9.65;;
16401;SDS011;8310;44.626;11.176;2022-10-31T12:59:45;14.15;;;8.60;;
16401;SDS011;8310;44.626;11.176;2022-10-31T13:02:18;10.57;;;8.32;;
16401;SDS011;8310;44.626;11.176;2022-10-31T13:04:50;10.57;;;7.90;;
16401;SDS011;8310;44.626;11.176;2022-10-31T13:07:25;14.30;;;9.40;;
16401;SDS011;8310;44.626;11.176;2022-10-31T13:09:58;13.32;;;8.18;;
16401;SDS011;8310;44.626;11.176;2022-10-31T13:12:29;12.77;;;8.85;;
16401;SDS011;8310;44.626;11.176;2022-10-31T13:14:59;9.77;;;8.38;;
16401;SDS011;8310;44.626;11.176;2022-10-31T13:17:34;11.93;;;8.70;;
16401;SDS011;8310;44.626;11.176;2022-10-31T13:20:13;13.05;;;7.90;;
16401;SDS011;8310;44.626;11.176;2022-10-31T13:22:49;15.30;;;9.25;;
16401;SDS011;8310;44.626;11.176;2022-10-31T13:25:21;13.30;;;8.48;;
16401;SDS011;8310;44.626;11.176;2022-10-31T13:27:53;20.77;;;9.10;;
16401;SDS011;8310;44.626;11.176;2022-10-31T13:30:24;10.32;;;7.88;;
16401;SDS011;8310;44.626;11.176;2022-10-31T13:32:58;11.10;;;7.10;;
16401;SDS011;8310;44.626;11.176;2022-10-31T13:35:31;13.00;;;8.38;;
16401;SDS011;8310;44.626;11.176;2022-10-31T13:38:10;10.23;;;7.88;;
16401;SDS011;8310;44.626;11.176;2022-10-31T13:40:45;10.75;;;7.03;;
16401;SDS011;8310;44.626;11.176;2022-10-31T13:43:22;10.10;;;7.88;;
16401;SDS011;8310;44.626;11.176;2022-10-31T13:45:55;15.68;;;8.70;;
16401;SDS011;8310;44.626;11.176;2022-10-31T13:51:10;10.90;;;7.95;;
16401;SDS011;8310;44.626;11.176;2022-10-31T13:53:56;13.85;;;7.53;;
16401;SDS011;8310;44.626;11.176;2022-10-31T13:56:25;12.35;;;8.18;;
16401;SDS011;8310;44.626;11.176;2022-10-31T13:59:05;13.45;;;7.65;;
16401;SDS011;8310;44.626;11.176;2022-10-31T14:01:50;11.35;;;6.93;;
16401;SDS011;8310;44.626;11.176;2022-10-31T14:04:23;7.82;;;6.50;;
16401;SDS011;8310;44.626;11.176;2022-10-31T14:06:55;11.88;;;6.78;;
16401;SDS011;8310;44.626;11.176;2022-10-31T14:09:28;10.05;;;7.05;;
16401;SDS011;8310;44.626;11.176;2022-10-31T14:11:58;10.10;;;7.10;;
16401;SDS011;8310;44.626;11.176;2022-10-31T14:14:32;8.48;;;7.20;;
16401;SDS011;8310;44.626;11.176;2022-10-31T14:17:02;8.90;;;6.95;;
16401;SDS011;8310;44.626;11.176;2022-10-31T14:19:31;9.98;;;7.97;;
16401;SDS011;8310;44.626;11.176;2022-10-31T14:22:01;14.35;;;8.02;;
16401;SDS011;8310;44.626;11.176;2022-10-31T14:24:34;11.98;;;8.05;;
16401;SDS011;8310;44.626;11.176;2022-10-31T14:27:04;13.00;;;7.45;;
16401;SDS011;8310;44.626;11.176;2022-10-31T14:29:47;12.90;;;7.15;;
16401;SDS011;8310;44.626;11.176;2022-10-31T14:32:19;10.13;;;7.30;;
16401;SDS011;8310;44.626;11.176;2022-10-31T14:34:52;9.15;;;7.20;;
16401;SDS011;8310;44.626;11.176;2022-10-31T14:37:27;9.32;;;6.75;;
16401;SDS011;8310;44.626;11.176;2022-10-31T14:40:10;13.50;;;7.20;;
16401;SDS011;8310;44.626;11.176;2022-10-31T14:42:58;10.32;;;7.25;;
16401;SDS011;8310;44.626;11.176;2022-10-31T14:45:49;12.55;;;7.05;;
16401;SDS011;8310;44.626;11.176;2022-10-31T14:51:19;8.50;;;6.68;;
16401;SDS011;8310;44.626;11.176;2022-10-31T14:53:48;11.02;;;7.20;;
16401;SDS011;8310;44.626;11.176;2022-10-31T14:56:21;10.23;;;6.65;;
16401;SDS011;8310;44.626;11.176;2022-10-31T14:58:51;10.57;;;7.28;;
16401;SDS011;8310;44.626;11.176;2022-10-31T15:01:23;7.43;;;6.28;;
16401;SDS011;8310;44.626;11.176;2022-10-31T15:03:52;9.25;;;7.25;;
16401;SDS011;8310;44.626;11.176;2022-10-31T15:06:22;9.40;;;7.07;;
16401;SDS011;8310;44.626;11.176;2022-10-31T15:08:51;10.57;;;7.70;;
16401;SDS011;8310;44.626;11.176;2022-10-31T15:11:22;9.57;;;7.18;;
16401;SDS011;8310;44.626;11.176;2022-10-31T15:13:51;10.98;;;6.85;;
16401;SDS011;8310;44.626;11.176;2022-10-31T15:16:20;7.82;;;6.78;;